ADDS METAR Data INFO
IDs: Format: Raw Decoded Include TAF

Data at: 2105 UTC 19 Jul 2018

KMQB 192055Z AUTO 15008G17KT 10SM BKN021 26/22 A2985 RMK AO2 T02570219
KMQB 192035Z AUTO 15012KT 10SM OVC021 25/22 A2985 RMK AO2 T02490216
KMQB 192015Z AUTO 15008KT 10SM OVC021 25/22 A2986 RMK AO2 LTG DSNT NE T02520218
KMQB 191955Z AUTO 16012KT 10SM BKN023 25/21 A2988 RMK AO2 T02450209
KMQB 191935Z AUTO 16014G17KT 10SM BKN023 25/21 A2988 RMK AO2 T02450211
KMQB 191915Z AUTO 16009KT 10SM VCTS BKN025 OVC100 24/21 A2989 RMK AO2 LTG DSNT NE T02370206
KMQB 191855Z AUTO 14009KT 10SM SCT025 SCT039 BKN100 23/20 A2991 RMK AO2 LTG DSNT NE AND SE T02250201
KMQB 191835Z AUTO 16006KT 10SM VCTS SCT025 SCT039 BKN100 22/20 A2992 RMK AO2 LTG DSNT NE THRU SE T02160200
KMQB 191815Z AUTO 15009KT 10SM TS SCT034 BKN100 BKN120 20/20 A2992 RMK AO2 LTG DSNT N THRU SE T02030195
KMQB 191755Z AUTO 16008G15KT 7SM -TSRA SCT017 SCT026 BKN032 20/19 A2992 RMK AO2 LTG DSNT ALQS P0035 60035 T02000191 10226 20166
KMQB 191735Z AUTO 17007KT 1 1/4SM TSRA SCT018 BKN025 OVC032 20/19 A2994 RMK AO2 LTG DSNT ALQS P0032 T01950189
KMQB 191715Z AUTO 26014G18KT 2 1/2SM TSRA SCT026 OVC032 21/18 A2996 RMK AO2 LTG DSNT ALQS T02130183
KMQB 191655Z AUTO 16011KT 10SM TS OVC036 22/18 A2992 RMK AO2 LTG DSNT SW THRU N T02220181
KMQB 191630Z AUTO 16009KT 10SM OVC038 22/19 A2993 RMK AO2 LTG DSNT SW THRU NW T02180187
KMQB 191615Z AUTO 15007KT 10SM OVC038 22/19 A2994 RMK AO2 LTG DSNT SW THRU NW T02230194
KMQB 191555Z AUTO 15009KT 10SM OVC038 21/18 A2995 RMK AO2 LTG DSNT SE THRU NW T02080182
KMQB 191535Z AUTO 16007KT 10SM VCTS OVC040 21/18 A2995 RMK AO2 LTG DSNT ALQS T02090178
KMQB 191520Z AUTO 14008KT 10SM BKN040 OVC047 20/17 A2995 RMK AO2 LTG DSNT SE SW AND NW T02010171
KMQB 191455Z AUTO 14009KT 10SM SCT043 SCT048 BKN070 22/17 A2996 RMK AO2 LTG DSNT SE T02150167
KMQB 191435Z AUTO 14011KT 10SM VCTS SCT070 BKN080 22/17 A2997 RMK AO2 LTG DSNT SE AND NW T02200165
KMQB 191355Z AUTO 13008KT 10SM SCT070 BKN080 20/15 A2997 RMK AO2 LTG DSNT S AND NW T02030153
KMQB 191335Z AUTO 13006KT 10SM VCTS SCT075 BKN080 BKN110 20/15 A2998 RMK AO2 LTG DSNT S T01980149
KMQB 191315Z AUTO 13006KT 10SM TS SCT075 BKN100 18/14 A2998 RMK AO2 LTG DSNT S THRU NW T01820143
KMQB 191255Z AUTO 12005KT 10SM TS OVC075 18/14 A2999 RMK AO2 LTG DSNT S THRU NW T01770144
KMQB 191240Z AUTO 11005KT 10SM OVC075 18/14 A2999 RMK AO2 LTG DSNT S AND SW T01750142
KMQB 191215Z AUTO 13003KT 10SM VCTS SCT085 BKN100 17/15 A2999 RMK AO2 LTG DSNT S THRU NW T01720149
KMQB 191200Z AUTO 00000KT 10SM SCT075 SCT090 17/15 A2999 RMK AO2 LTG DSNT S THRU NW T01690149
KMQB 191135Z AUTO 00000KT 10SM CLR 16/14 A2999 RMK AO2 LTG DSNT S AND NW T01620143
KMQB 191115Z AUTO 08003KT 10SM CLR 16/15 A2999 RMK AO2 LTG DSNT W AND NW T01600145
KMQB 191055Z AUTO 12006KT 10SM -RA SCT032 SCT050 BKN085 17/15 A2999 RMK AO2 LTG DSNT S THRU NW T01650149
KMQB 191035Z AUTO 00000KT 10SM SCT070 BKN090 BKN110 17/15 A3000 RMK AO2 LTG DSNT SW AND NW T01680152
KMQB 191015Z AUTO 00000KT 10SM SCT070 17/15 A3000 RMK AO2 LTG DSNT S THRU NW T01700146
KMQB 190955Z AUTO 00000KT 10SM CLR 17/15 A3000 RMK AO2 LTG DSNT S T01680145
KMQB 190940Z AUTO 08004KT 10SM CLR 17/15 A3000 RMK AO2 T01660146
KMQB 190915Z AUTO 10003KT 10SM CLR 17/15 A3000 RMK AO2 LTG DSNT SW THRU NW T01670147
KMQB 190855Z AUTO 10004KT 10SM CLR 17/15 A3000 RMK AO2 LTG DSNT W T01740147
KMQB 190840Z AUTO 10004KT 10SM SCT065 SCT110 18/15 A3001 RMK AO2 LTG DSNT W AND NW T01760148
KMQB 190815Z AUTO 11005KT 10SM CLR 18/15 A3002 RMK AO2 T01790149
KMQB 190755Z AUTO 11004KT 10SM SCT065 SCT110 18/15 A3002 RMK AO2 LTG DSNT W T01820151
KMQB 190735Z AUTO 12004KT 10SM BKN075 OVC110 19/16 A3002 RMK AO2 T01860155
KMQB 190715Z AUTO 13005KT 10SM OVC075 19/16 A3003 RMK AO2 LTG DSNT NW T01890158
KMQB 190655Z AUTO 13005KT 10SM -RA OVC075 19/16 A3003 RMK AO2 LTG DSNT NW T01900160
KMQB 190635Z AUTO 14004KT 10SM OVC075 19/16 A3003 RMK AO2 LTG DSNT NW T01920164
KMQB 190615Z AUTO 13004KT 10SM OVC075 19/17 A3004 RMK AO2 T01910168
KMQB 190555Z AUTO 12005KT 10SM BKN075 OVC100 19/17 A3004 RMK AO2 T01910168 10245 20190 402700160
KMQB 190535Z AUTO 13004KT 10SM BKN075 BKN100 20/17 A3004 RMK AO2 T01950170
KMQB 190520Z AUTO 13005KT 10SM CLR 20/17 A3005 RMK AO2 LTG DSNT NW T01950168
KMQB 190455Z AUTO 12006KT 10SM CLR 20/17 A3004 RMK AO2 T01950168
KMQB 190435Z AUTO 11005KT 10SM CLR 20/17 A3005 RMK AO2 T01960170
KMQB 190415Z AUTO 11006KT 7SM CLR 20/17 A3004 RMK AO2 T02020170
KMQB 190400Z AUTO 11006KT 10SM CLR 20/17 A3004 RMK AO2 T02000173
KMQB 190340Z AUTO 10007KT 10SM CLR 20/18 A3004 RMK AO2 T02000175
KMQB 190315Z AUTO 12007KT 10SM CLR 20/18 A3005 RMK AO2 T01960178
KMQB 190255Z AUTO 13005KT 10SM CLR 20/18 A3005 RMK AO2 T01970181
KMQB 190235Z AUTO 13005KT 10SM CLR 20/18 A3004 RMK AO2 T02000183
KMQB 190220Z AUTO 13005KT 10SM CLR 20/19 A3004 RMK AO2 T02000185
KMQB 190155Z AUTO 12005KT 10SM CLR 20/19 A3003 RMK AO2 T02020187
KMQB 190115Z AUTO 13005KT 10SM CLR 22/19 A3003 RMK AO2 T02190191
KMQB 190055Z AUTO 13005KT 10SM CLR 23/19 A3003 RMK AO2 T02270191
KMQB 190035Z AUTO 12005KT 10SM CLR 24/19 A3003 RMK AO2 T02350192
KMQB 190018Z AUTO 12005KT 10SM CLR 23/20 A3003 RMK AO2
KMQB 182355Z AUTO 11004KT 10SM CLR 25/20 A3003 RMK AO2 T02450199 10270 20243
KMQB 182335Z AUTO 11006KT 10SM CLR 25/20 A3003 RMK AO2 T02450196
KMQB 182310Z AUTO 11004KT 10SM CLR 25/20 A3003 RMK AO2 T02500200
KMQB 182300Z AUTO 11006KT 10SM SCT037 26/20 A3003 RMK AO2 T02550195
KMQB 182235Z AUTO 10007KT 10SM SCT035 26/20 A3004 RMK AO2 T02560196
KMQB 182215Z AUTO 11005KT 10SM SCT037 26/20 A3004 RMK AO2 T02630196
KMQB 182155Z AUTO 11008KT 10SM SCT037 SCT050 26/20 A3005 RMK AO2 T02610198
KMQB 182135Z AUTO 13005KT 10SM SCT037 26/20 A3005 RMK AO2 T02600199
KMQB 182115Z AUTO 16007KT 10SM CLR 27/20 A3006 RMK AO2 T02700202
KMQB 182055Z AUTO 14006KT 10SM SCT033 27/20 A3006 RMK AO2 T02670197
KMQB 182035Z AUTO 14007KT 10SM SCT033 27/20 A3007 RMK AO2 T02680204
KMQB 182015Z AUTO 12007KT 10SM CLR 27/20 A3008 RMK AO2 T02670199
KMQB 181955Z AUTO 13006KT 10SM CLR 27/20 A3008 RMK AO2 T02670197
KMQB 181935Z AUTO 13007KT 10SM CLR 26/19 A3009 RMK AO2 T02630193
KMQB 181915Z AUTO 13007KT 10SM CLR 26/19 A3009 RMK AO2 T02610193
KMQB 181855Z AUTO 15008KT 10SM CLR 26/19 A3010 RMK AO2 T02580191
KMQB 181835Z AUTO 14008KT 10SM CLR 26/19 A3010 RMK AO2 T02580190
KMQB 181815Z AUTO 14009KT 10SM CLR 26/19 A3011 RMK AO2 T02550189
KMQB 181755Z AUTO 15007KT 10SM CLR 25/19 A3011 RMK AO2 T02540185 10254 20168
KMQB 181735Z AUTO 12006KT 10SM CLR 25/18 A3012 RMK AO2 T02520182
KMQB 181715Z AUTO 12006KT 10SM CLR 25/18 A3013 RMK AO2 T02490180
KMQB 181650Z AUTO 12009KT 10SM CLR 24/17 A3013 RMK AO2 T02410170
KMQB 181635Z AUTO 12008KT 10SM CLR 24/17 A3013 RMK AO2 T02390169
KMQB 181615Z AUTO 12010KT 10SM CLR 24/17 A3014 RMK AO2 T02380169
KMQB 181555Z AUTO 13009KT 10SM CLR 23/16 A3014 RMK AO2 T02320159
KMQB 181535Z AUTO 11009KT 10SM CLR 23/16 A3013 RMK AO2 T02290159
KMQB 181520Z AUTO 14010G14KT 10SM CLR 23/16 A3013 RMK AO2 T02300159
KMQB 181455Z AUTO 14010KT 10SM SCT085 23/16 A3014 RMK AO2 T02250155
KMQB 181435Z AUTO 13009KT 10SM CLR 22/16 A3014 RMK AO2 T02180155
KMQB 181415Z AUTO 14007KT 10SM CLR 22/16 A3014 RMK AO2 T02150158
KMQB 181355Z AUTO 13008KT 10SM CLR 21/15 A3014 RMK AO2 T02070154
KMQB 181335Z AUTO 11007KT 10SM CLR 20/16 A3013 RMK AO2 LTG DSNT S T02010158
KMQB 181315Z AUTO 09004KT 10SM CLR 20/16 A3014 RMK AO2 T01950160
KMQB 181255Z AUTO 10003KT 10SM CLR 19/16 A3013 RMK AO2 T01890159
KMQB 181240Z AUTO 10004KT 10SM CLR 18/16 A3013 RMK AO2 T01820158
KMQB 181220Z AUTO 09004KT 10SM CLR 18/16 A3013 RMK AO2 T01760155
KMQB 181200Z AUTO 08003KT 10SM CLR 17/15 A3012 RMK AO2 T01690154
KMQB 181135Z AUTO 09003KT 10SM CLR 16/15 A3012 RMK AO2 T01630152
KMQB 181115Z AUTO 07003KT 10SM CLR 16/15 A3012 RMK AO2 T01600152
KMQB 181050Z AUTO 08004KT 10SM CLR 16/16 A3013 RMK AO2 T01610155
KMQB 181035Z AUTO 08003KT 10SM CLR 16/16 A3013 RMK AO2 T01630156
KMQB 181015Z AUTO 08003KT 10SM CLR 17/16 A3011 RMK AO2 T01650158
KMQB 180955Z AUTO 07005KT 10SM CLR 17/16 A3012 RMK AO2 T01680162
KMQB 180935Z AUTO 09003KT 10SM CLR 17/17 A3012 RMK AO2 T01710165
KMQB 180915Z AUTO 10004KT 10SM CLR 18/17 A3011 RMK AO2 T01750168